sensor_id;sensor_type;location;lat;lon;timestamp;pressure;altitude;pressure_sealevel;temperature;humidity
51297;BME280;37380;45.186;9.792;2022-07-17T00:00:19;101142.81;;;26.76;79.46
51297;BME280;37380;45.186;9.792;2022-07-17T00:02:52;101125.88;;;26.74;79.48
51297;BME280;37380;45.186;9.792;2022-07-17T00:05:53;101138.44;;;26.72;80.01
51297;BME280;37380;45.186;9.792;2022-07-17T00:08:54;101151.28;;;26.59;80.77
51297;BME280;37380;45.186;9.792;2022-07-17T00:11:55;101140.72;;;26.53;80.44
51297;BME280;37380;45.186;9.792;2022-07-17T00:14:49;101149.91;;;26.41;81.07
51297;BME280;37380;45.186;9.792;2022-07-17T00:17:23;101129.44;;;26.37;80.78
51297;BME280;37380;45.186;9.792;2022-07-17T00:20:18;101133.91;;;26.38;80.47
51297;BME280;37380;45.186;9.792;2022-07-17T00:22:45;101137.31;;;26.43;79.90
51297;BME280;37380;45.186;9.792;2022-07-17T00:25:13;101157.94;;;26.41;80.21
51297;BME280;37380;45.186;9.792;2022-07-17T00:27:40;101164.84;;;26.52;79.61
51297;BME280;37380;45.186;9.792;2022-07-17T00:30:10;101144.38;;;26.48;79.63
51297;BME280;37380;45.186;9.792;2022-07-17T00:32:38;101164.63;;;26.61;79.61
51297;BME280;37380;45.186;9.792;2022-07-17T00:35:11;101150.91;;;26.36;79.47
51297;BME280;37380;45.186;9.792;2022-07-17T00:37:46;101172.03;;;26.50;79.96
51297;BME280;37380;45.186;9.792;2022-07-17T00:40:20;101112.09;;;26.15;79.79
51297;BME280;37380;45.186;9.792;2022-07-17T00:42:49;101135.00;;;26.28;79.74
51297;BME280;37380;45.186;9.792;2022-07-17T00:45:16;101149.13;;;26.36;79.61
51297;BME280;37380;45.186;9.792;2022-07-17T00:48:10;101167.94;;;26.33;80.35
51297;BME280;37380;45.186;9.792;2022-07-17T00:50:55;101153.28;;;26.11;80.81
51297;BME280;37380;45.186;9.792;2022-07-17T00:53:22;101154.06;;;26.16;81.05
51297;BME280;37380;45.186;9.792;2022-07-17T00:55:49;101160.13;;;26.24;80.34
51297;BME280;37380;45.186;9.792;2022-07-17T00:58:19;101168.91;;;26.29;80.02
51297;BME280;37380;45.186;9.792;2022-07-17T01:00:48;101146.91;;;26.16;80.07
51297;BME280;37380;45.186;9.792;2022-07-17T01:03:26;101176.78;;;26.37;79.70
51297;BME280;37380;45.186;9.792;2022-07-17T01:06:26;101172.44;;;26.33;80.19
51297;BME280;37380;45.186;9.792;2022-07-17T01:09:20;101170.63;;;26.33;79.66
51297;BME280;37380;45.186;9.792;2022-07-17T01:11:48;101160.06;;;26.27;79.48
51297;BME280;37380;45.186;9.792;2022-07-17T01:14:16;101122.53;;;25.88;80.47
51297;BME280;37380;45.186;9.792;2022-07-17T01:16:44;101131.19;;;26.00;79.94
51297;BME280;37380;45.186;9.792;2022-07-17T01:19:21;101132.28;;;25.92;80.24
51297;BME280;37380;45.186;9.792;2022-07-17T01:21:50;101180.84;;;26.16;81.03
51297;BME280;37380;45.186;9.792;2022-07-17T01:24:17;101164.19;;;26.02;80.85
51297;BME280;37380;45.186;9.792;2022-07-17T01:26:45;101178.38;;;26.07;81.08
51297;BME280;37380;45.186;9.792;2022-07-17T01:29:14;101177.56;;;26.02;81.60
51297;BME280;37380;45.186;9.792;2022-07-17T01:31:41;101182.81;;;26.08;80.78
51297;BME280;37380;45.186;9.792;2022-07-17T01:34:09;101167.06;;;25.92;80.79
51297;BME280;37380;45.186;9.792;2022-07-17T01:36:37;101166.44;;;25.78;81.61
51297;BME280;37380;45.186;9.792;2022-07-17T01:39:04;101192.13;;;25.90;82.27
51297;BME280;37380;45.186;9.792;2022-07-17T01:41:32;101190.47;;;25.81;82.57
51297;BME280;37380;45.186;9.792;2022-07-17T01:44:05;101206.53;;;25.81;82.69
51297;BME280;37380;45.186;9.792;2022-07-17T01:47:06;101199.16;;;25.94;82.02
51297;BME280;37380;45.186;9.792;2022-07-17T01:50:03;101187.06;;;25.74;82.32
51297;BME280;37380;45.186;9.792;2022-07-17T01:52:35;101205.06;;;25.65;83.72
51297;BME280;37380;45.186;9.792;2022-07-17T01:55:09;101193.50;;;25.64;83.54
51297;BME280;37380;45.186;9.792;2022-07-17T01:57:44;101217.22;;;25.84;82.68
51297;BME280;37380;45.186;9.792;2022-07-17T02:00:39;101216.44;;;25.76;82.83
51297;BME280;37380;45.186;9.792;2022-07-17T02:03:12;101168.03;;;25.43;83.26
51297;BME280;37380;45.186;9.792;2022-07-17T02:06:13;101219.16;;;25.74;83.37
51297;BME280;37380;45.186;9.792;2022-07-17T02:09:07;101173.59;;;25.33;84.39
51297;BME280;37380;45.186;9.792;2022-07-17T02:11:34;101175.50;;;25.26;84.56
51297;BME280;37380;45.186;9.792;2022-07-17T02:14:01;101206.50;;;25.36;84.57
51297;BME280;37380;45.186;9.792;2022-07-17T02:16:35;101188.06;;;25.21;84.15
51297;BME280;37380;45.186;9.792;2022-07-17T02:19:36;101211.72;;;25.42;83.72
51297;BME280;37380;45.186;9.792;2022-07-17T02:22:04;101191.25;;;25.43;82.51
51297;BME280;37380;45.186;9.792;2022-07-17T02:24:31;101210.09;;;25.35;83.73
51297;BME280;37380;45.186;9.792;2022-07-17T02:26:58;101228.69;;;25.43;83.30
51297;BME280;37380;45.186;9.792;2022-07-17T02:29:25;101203.06;;;25.31;82.91
51297;BME280;37380;45.186;9.792;2022-07-17T02:31:52;101208.34;;;25.34;83.53
51297;BME280;37380;45.186;9.792;2022-07-17T02:34:19;101219.88;;;25.36;83.79
51297;BME280;37380;45.186;9.792;2022-07-17T02:36:57;101211.78;;;25.39;83.50
51297;BME280;37380;45.186;9.792;2022-07-17T02:39:24;101215.56;;;25.29;84.52
51297;BME280;37380;45.186;9.792;2022-07-17T02:41:51;101227.03;;;25.36;84.19
51297;BME280;37380;45.186;9.792;2022-07-17T02:44:18;101210.34;;;25.23;84.30
51297;BME280;37380;45.186;9.792;2022-07-17T02:46:53;101237.97;;;25.22;85.58
51297;BME280;37380;45.186;9.792;2022-07-17T02:49:53;101246.72;;;25.32;85.52
51297;BME280;37380;45.186;9.792;2022-07-17T02:52:50;101245.16;;;25.20;86.46
51297;BME280;37380;45.186;9.792;2022-07-17T02:55:24;101225.56;;;25.19;85.69
51297;BME280;37380;45.186;9.792;2022-07-17T02:58:19;101186.97;;;24.80;86.65
51297;BME280;37380;45.186;9.792;2022-07-17T03:00:46;101244.47;;;25.05;87.38
51297;BME280;37380;45.186;9.792;2022-07-17T03:03:19;101248.00;;;25.07;86.88
51297;BME280;37380;45.186;9.792;2022-07-17T03:06:14;101238.13;;;25.14;86.46
51297;BME280;37380;45.186;9.792;2022-07-17T03:08:40;101247.91;;;25.12;86.67
51297;BME280;37380;45.186;9.792;2022-07-17T03:11:08;101241.91;;;24.98;87.62
51297;BME280;37380;45.186;9.792;2022-07-17T03:13:35;101224.19;;;24.92;87.41
51297;BME280;37380;45.186;9.792;2022-07-17T03:16:04;101271.84;;;25.23;87.74
51297;BME280;37380;45.186;9.792;2022-07-17T03:18:31;101266.56;;;25.18;87.53
51297;BME280;37380;45.186;9.792;2022-07-17T03:20:58;101294.06;;;25.26;88.61
51297;BME280;37380;45.186;9.792;2022-07-17T03:23:27;101275.56;;;25.11;88.96
51297;BME280;37380;45.186;9.792;2022-07-17T03:25:54;101254.50;;;24.91;89.91
51297;BME280;37380;45.186;9.792;2022-07-17T03:28:21;101287.94;;;25.20;89.05
51297;BME280;37380;45.186;9.792;2022-07-17T03:30:48;101293.19;;;25.24;89.23
51297;BME280;37380;45.186;9.792;2022-07-17T03:33:15;101295.81;;;25.29;88.95
51297;BME280;37380;45.186;9.792;2022-07-17T03:35:42;101250.59;;;25.14;87.73
51297;BME280;37380;45.186;9.792;2022-07-17T03:38:09;101302.97;;;25.27;88.63
51297;BME280;37380;45.186;9.792;2022-07-17T03:40:37;101304.88;;;25.20;89.75
51297;BME280;37380;45.186;9.792;2022-07-17T03:43:04;101311.03;;;25.25;89.99
51297;BME280;37380;45.186;9.792;2022-07-17T03:45:37;101310.28;;;25.13;89.93
51297;BME280;37380;45.186;9.792;2022-07-17T03:48:38;101321.91;;;25.12;91.24
51297;BME280;37380;45.186;9.792;2022-07-17T03:51:42;101279.53;;;24.84;92.20
51297;BME280;37380;45.186;9.792;2022-07-17T03:54:09;101314.84;;;25.07;91.22
51297;BME280;37380;45.186;9.792;2022-07-17T03:56:45;101312.19;;;25.07;90.79
51297;BME280;37380;45.186;9.792;2022-07-17T03:59:46;101306.75;;;25.12;91.32
51297;BME280;37380;45.186;9.792;2022-07-17T04:02:48;101294.28;;;25.11;91.40
51297;BME280;37380;45.186;9.792;2022-07-17T04:05:15;101339.31;;;25.39;91.01
51297;BME280;37380;45.186;9.792;2022-07-17T04:07:43;101310.16;;;25.25;91.36
51297;BME280;37380;45.186;9.792;2022-07-17T04:10:13;101300.41;;;25.21;91.14
51297;BME280;37380;45.186;9.792;2022-07-17T04:12:40;101339.59;;;25.23;92.78
51297;BME280;37380;45.186;9.792;2022-07-17T04:15:09;101326.47;;;25.03;93.41
51297;BME280;37380;45.186;9.792;2022-07-17T04:17:39;101293.97;;;24.74;94.32
51297;BME280;37380;45.186;9.792;2022-07-17T04:20:06;101343.69;;;24.85;96.38
51297;BME280;37380;45.186;9.792;2022-07-17T04:22:33;101339.34;;;24.77;97.26
51297;BME280;37380;45.186;9.792;2022-07-17T04:25:01;101363.09;;;25.00;96.80
51297;BME280;37380;45.186;9.792;2022-07-17T04:27:28;101355.88;;;25.05;95.98
51297;BME280;37380;45.186;9.792;2022-07-17T04:29:55;101373.63;;;25.09;96.49
51297;BME280;37380;45.186;9.792;2022-07-17T04:32:21;101369.16;;;25.10;95.58
51297;BME280;37380;45.186;9.792;2022-07-17T04:34:48;101350.44;;;25.11;95.43
51297;BME280;37380;45.186;9.792;2022-07-17T04:37:15;101344.25;;;25.07;95.56
51297;BME280;37380;45.186;9.792;2022-07-17T04:39:42;101376.16;;;25.23;96.84
51297;BME280;37380;45.186;9.792;2022-07-17T04:42:09;101377.38;;;25.58;94.10
51297;BME280;37380;45.186;9.792;2022-07-17T04:44:42;101371.75;;;25.73;92.86
51297;BME280;37380;45.186;9.792;2022-07-17T04:47:44;101377.06;;;26.26;90.20
51297;BME280;37380;45.186;9.792;2022-07-17T04:50:38;101313.34;;;26.41;85.61
51297;BME280;37380;45.186;9.792;2022-07-17T04:53:11;101381.94;;;27.33;83.49
51297;BME280;37380;45.186;9.792;2022-07-17T04:56:12;101386.81;;;27.52;82.20
51297;BME280;37380;45.186;9.792;2022-07-17T04:59:13;101364.94;;;27.69;81.03
51297;BME280;37380;45.186;9.792;2022-07-17T05:02:07;101395.06;;;27.81;80.71
51297;BME280;37380;45.186;9.792;2022-07-17T05:05:01;101391.16;;;28.27;78.54
51297;BME280;37380;45.186;9.792;2022-07-17T05:07:36;101387.66;;;28.25;78.46
51297;BME280;37380;45.186;9.792;2022-07-17T05:10:04;101380.91;;;28.42;76.17
51297;BME280;37380;45.186;9.792;2022-07-17T05:12:32;101372.88;;;29.00;72.90
51297;BME280;37380;45.186;9.792;2022-07-17T05:15:03;101367.84;;;28.60;73.56
51297;BME280;37380;45.186;9.792;2022-07-17T05:17:30;101386.06;;;28.80;72.79
51297;BME280;37380;45.186;9.792;2022-07-17T05:20:02;101374.28;;;27.89;77.55
51297;BME280;37380;45.186;9.792;2022-07-17T05:22:29;101386.69;;;27.20;80.86
51297;BME280;37380;45.186;9.792;2022-07-17T05:24:56;101364.69;;;26.65;85.67
51297;BME280;37380;45.186;9.792;2022-07-17T05:27:27;101416.72;;;26.97;85.47
51297;BME280;37380;45.186;9.792;2022-07-17T05:29:54;101417.13;;;27.20;84.58
51297;BME280;37380;45.186;9.792;2022-07-17T05:32:27;101409.75;;;27.28;83.01
51297;BME280;37380;45.186;9.792;2022-07-17T05:35:28;101435.78;;;27.62;82.42
51297;BME280;37380;45.186;9.792;2022-07-17T05:38:23;101404.94;;;27.43;82.44
51297;BME280;37380;45.186;9.792;2022-07-17T05:40:50;101428.50;;;27.67;81.18
51297;BME280;37380;45.186;9.792;2022-07-17T05:43:17;101399.28;;;27.55;81.23
51297;BME280;37380;45.186;9.792;2022-07-17T05:45:54;101442.63;;;27.75;82.04
51297;BME280;37380;45.186;9.792;2022-07-17T05:48:55;101451.34;;;27.87;80.62
51297;BME280;37380;45.186;9.792;2022-07-17T05:51:49;101435.47;;;27.74;81.62
51297;BME280;37380;45.186;9.792;2022-07-17T05:54:16;101426.19;;;27.89;79.80
51297;BME280;37380;45.186;9.792;2022-07-17T05:56:50;101421.25;;;28.07;78.37
51297;BME280;37380;45.186;9.792;2022-07-17T05:59:56;101430.66;;;27.90;78.45
51297;BME280;37380;45.186;9.792;2022-07-17T06:02:51;101446.41;;;28.70;75.28
51297;BME280;37380;45.186;9.792;2022-07-17T06:05:18;101426.75;;;28.97;73.71
51297;BME280;37380;45.186;9.792;2022-07-17T06:07:46;101456.19;;;29.33;71.66
51297;BME280;37380;45.186;9.792;2022-07-17T06:10:26;101459.06;;;29.55;70.71
51297;BME280;37380;45.186;9.792;2022-07-17T06:12:54;101421.25;;;29.31;70.15
51297;BME280;37380;45.186;9.792;2022-07-17T06:15:27;101458.53;;;29.73;68.72
51297;BME280;37380;45.186;9.792;2022-07-17T06:18:22;101425.97;;;30.81;62.47
51297;BME280;37380;45.186;9.792;2022-07-17T06:20:49;101373.00;;;31.46;59.61
51297;BME280;37380;45.186;9.792;2022-07-17T06:23:20;101418.44;;;33.38;53.22
51297;BME280;37380;45.186;9.792;2022-07-17T06:25:50;101467.91;;;32.03;56.69
51297;BME280;37380;45.186;9.792;2022-07-17T06:28:23;101446.53;;;31.97;55.88
51297;BME280;37380;45.186;9.792;2022-07-17T06:31:18;101447.38;;;33.00;53.29
51297;BME280;37380;45.186;9.792;2022-07-17T06:33:45;101456.78;;;32.91;52.58
51297;BME280;37380;45.186;9.792;2022-07-17T06:36:12;101473.75;;;31.70;56.21
51297;BME280;37380;45.186;9.792;2022-07-17T06:38:39;101447.63;;;30.78;58.31
51297;BME280;37380;45.186;9.792;2022-07-17T06:41:06;101460.53;;;30.45;59.10
51297;BME280;37380;45.186;9.792;2022-07-17T06:43:33;101483.63;;;29.74;61.92
51297;BME280;37380;45.186;9.792;2022-07-17T06:46:07;101451.41;;;29.71;62.91
51297;BME280;37380;45.186;9.792;2022-07-17T06:49:08;101462.41;;;31.62;55.46
51297;BME280;37380;45.186;9.792;2022-07-17T06:52:03;101469.34;;;31.90;53.06
51297;BME280;37380;45.186;9.792;2022-07-17T06:54:30;101497.88;;;33.20;49.00
51297;BME280;37380;45.186;9.792;2022-07-17T06:57:04;101472.59;;;33.00;49.81
51297;BME280;37380;45.186;9.792;2022-07-17T07:00:05;101482.34;;;34.32;46.94
51297;BME280;37380;45.186;9.792;2022-07-17T07:03:18;101501.03;;;35.86;40.53
51297;BME280;37380;45.186;9.792;2022-07-17T07:06:13;101506.00;;;33.20;46.51
51297;BME280;37380;45.186;9.792;2022-07-17T07:08:40;101498.00;;;34.44;42.99
51297;BME280;37380;45.186;9.792;2022-07-17T07:11:07;101489.03;;;32.56;46.75
51297;BME280;37380;45.186;9.792;2022-07-17T07:13:41;101512.66;;;32.92;45.62
51297;BME280;37380;45.186;9.792;2022-07-17T07:16:08;101487.59;;;34.35;42.07
51297;BME280;37380;45.186;9.792;2022-07-17T07:18:36;101486.41;;;35.09;40.07
51297;BME280;37380;45.186;9.792;2022-07-17T07:21:03;101518.66;;;33.38;43.81
51297;BME280;37380;45.186;9.792;2022-07-17T07:23:30;101450.31;;;32.75;44.92
51297;BME280;37380;45.186;9.792;2022-07-17T07:25:59;101497.22;;;33.52;45.18
51297;BME280;37380;45.186;9.792;2022-07-17T07:28:26;101529.22;;;34.36;43.25
51297;BME280;37380;45.186;9.792;2022-07-17T07:30:53;101523.72;;;32.04;48.40
51297;BME280;37380;45.186;9.792;2022-07-17T07:33:26;101505.13;;;32.59;48.69
51297;BME280;37380;45.186;9.792;2022-07-17T07:36:27;101501.81;;;33.12;45.27
51297;BME280;37380;45.186;9.792;2022-07-17T07:39:22;101490.81;;;33.16;46.57
51297;BME280;37380;45.186;9.792;2022-07-17T07:41:55;101504.69;;;33.66;44.33
51297;BME280;37380;45.186;9.792;2022-07-17T07:45:00;101510.34;;;33.79;44.67
51297;BME280;37380;45.186;9.792;2022-07-17T07:47:44;101518.09;;;34.40;43.44
51297;BME280;37380;45.186;9.792;2022-07-17T07:50:38;101513.59;;;34.91;41.49
51297;BME280;37380;45.186;9.792;2022-07-17T07:53:12;101508.38;;;34.19;43.01
51297;BME280;37380;45.186;9.792;2022-07-17T07:56:12;101521.03;;;33.82;43.85
51297;BME280;37380;45.186;9.792;2022-07-17T07:59:13;101500.44;;;33.61;44.93
51297;BME280;37380;45.186;9.792;2022-07-17T08:01:53;101491.69;;;34.26;42.31
51297;BME280;37380;45.186;9.792;2022-07-17T08:04:55;101526.75;;;33.19;47.01
51297;BME280;37380;45.186;9.792;2022-07-17T08:07:56;101531.25;;;31.74;49.42
51297;BME280;37380;45.186;9.792;2022-07-17T08:10:35;101527.22;;;33.67;45.25
51297;BME280;37380;45.186;9.792;2022-07-17T08:13:02;101533.22;;;33.35;44.87
51297;BME280;37380;45.186;9.792;2022-07-17T08:15:37;101521.00;;;34.01;42.22
51297;BME280;37380;45.186;9.792;2022-07-17T08:18:31;101542.13;;;33.19;45.22
51297;BME280;37380;45.186;9.792;2022-07-17T08:20:58;101524.63;;;32.47;47.22
51297;BME280;37380;45.186;9.792;2022-07-17T08:23:25;101510.94;;;33.10;47.33
51297;BME280;37380;45.186;9.792;2022-07-17T08:26:02;101531.47;;;33.53;44.56
51297;BME280;37380;45.186;9.792;2022-07-17T08:29:03;101524.16;;;32.97;45.82
51297;BME280;37380;45.186;9.792;2022-07-17T08:32:16;101526.88;;;33.55;43.92
51297;BME280;37380;45.186;9.792;2022-07-17T08:34:46;101528.00;;;33.51;43.36
51297;BME280;37380;45.186;9.792;2022-07-17T08:37:22;101536.72;;;33.19;45.61
51297;BME280;37380;45.186;9.792;2022-07-17T08:40:21;101523.34;;;34.26;42.29
51297;BME280;37380;45.186;9.792;2022-07-17T08:42:50;101514.75;;;34.70;40.64
51297;BME280;37380;45.186;9.792;2022-07-17T08:45:18;101558.88;;;34.02;42.61
51297;BME280;37380;45.186;9.792;2022-07-17T08:48:21;101534.28;;;34.94;39.64
51297;BME280;37380;45.186;9.792;2022-07-17T08:50:58;101534.03;;;34.12;42.13
51297;BME280;37380;45.186;9.792;2022-07-17T08:53:26;101491.22;;;33.08;43.62
51297;BME280;37380;45.186;9.792;2022-07-17T08:55:53;101542.28;;;32.34;47.81
51297;BME280;37380;45.186;9.792;2022-07-17T08:58:27;101539.44;;;32.98;45.58
51297;BME280;37380;45.186;9.792;2022-07-17T09:01:14;101526.41;;;32.26;47.51
51297;BME280;37380;45.186;9.792;2022-07-17T09:03:55;101555.31;;;32.24;47.69
51297;BME280;37380;45.186;9.792;2022-07-17T09:06:23;101557.13;;;32.45;46.93
51297;BME280;37380;45.186;9.792;2022-07-17T09:09:04;101545.56;;;31.54;49.31
51297;BME280;37380;45.186;9.792;2022-07-17T09:12:06;101502.63;;;31.46;48.31
51297;BME280;37380;45.186;9.792;2022-07-17T09:15:00;101537.19;;;32.68;49.64
51297;BME280;37380;45.186;9.792;2022-07-17T09:17:47;101566.63;;;31.90;49.39
51297;BME280;37380;45.186;9.792;2022-07-17T09:20:15;101523.94;;;31.76;50.24
51297;BME280;37380;45.186;9.792;2022-07-17T09:22:43;101530.03;;;31.59;51.51
51297;BME280;37380;45.186;9.792;2022-07-17T09:25:17;101499.31;;;31.84;48.51
51297;BME280;37380;45.186;9.792;2022-07-17T09:28:12;101529.53;;;32.58;50.09
51297;BME280;37380;45.186;9.792;2022-07-17T09:30:46;101541.91;;;32.84;47.14
51297;BME280;37380;45.186;9.792;2022-07-17T09:33:25;101549.38;;;33.57;45.76
51297;BME280;37380;45.186;9.792;2022-07-17T09:36:26;101527.47;;;33.04;48.05
51297;BME280;37380;45.186;9.792;2022-07-17T09:38:55;101558.28;;;32.60;48.67
51297;BME280;37380;45.186;9.792;2022-07-17T09:41:24;101561.34;;;32.31;49.48
51297;BME280;37380;45.186;9.792;2022-07-17T09:43:58;101558.19;;;32.41;48.76
51297;BME280;37380;45.186;9.792;2022-07-17T09:46:34;101504.97;;;32.21;49.68
51297;BME280;37380;45.186;9.792;2022-07-17T09:49:30;101553.91;;;33.57;45.90
51297;BME280;37380;45.186;9.792;2022-07-17T09:52:12;101511.88;;;34.21;43.61
51297;BME280;37380;45.186;9.792;2022-07-17T09:54:40;101549.34;;;33.20;47.25
51297;BME280;37380;45.186;9.792;2022-07-17T09:57:14;101510.59;;;33.18;47.04
51297;BME280;37380;45.186;9.792;2022-07-17T10:00:09;101535.66;;;33.23;47.50
51297;BME280;37380;45.186;9.792;2022-07-17T10:02:43;101540.44;;;33.55;46.71
51297;BME280;37380;45.186;9.792;2022-07-17T10:05:13;101555.41;;;32.43;49.66
51297;BME280;37380;45.186;9.792;2022-07-17T10:07:45;101544.47;;;32.04;50.40
51297;BME280;37380;45.186;9.792;2022-07-17T10:10:13;101550.97;;;32.20;52.10
51297;BME280;37380;45.186;9.792;2022-07-17T10:12:47;101541.25;;;32.58;49.64
51297;BME280;37380;45.186;9.792;2022-07-17T10:15:16;101545.50;;;32.84;49.66
51297;BME280;37380;45.186;9.792;2022-07-17T10:17:44;101548.22;;;33.24;48.06
51297;BME280;37380;45.186;9.792;2022-07-17T10:20:12;101503.88;;;34.18;43.95
51297;BME280;37380;45.186;9.792;2022-07-17T10:22:45;101536.47;;;34.70;42.75
51297;BME280;37380;45.186;9.792;2022-07-17T10:25:15;101546.66;;;33.57;47.39
51297;BME280;37380;45.186;9.792;2022-07-17T10:27:53;101533.59;;;32.47;49.79
51297;BME280;37380;45.186;9.792;2022-07-17T10:30:57;101526.09;;;32.54;49.60
51297;BME280;37380;45.186;9.792;2022-07-17T10:34:09;101529.69;;;33.14;44.00
51297;BME280;37380;45.186;9.792;2022-07-17T10:36:39;101509.03;;;34.24;42.99
51297;BME280;37380;45.186;9.792;2022-07-17T10:39:20;101548.81;;;34.76;43.39
51297;BME280;37380;45.186;9.792;2022-07-17T10:42:37;101526.78;;;35.64;40.62
51297;BME280;37380;45.186;9.792;2022-07-17T10:48:08;101533.88;;;34.15;44.60
51297;BME280;37380;45.186;9.792;2022-07-17T10:50:39;101493.47;;;32.78;48.83
51297;BME280;37380;45.186;9.792;2022-07-17T10:56:16;101518.91;;;33.52;46.48
51297;BME280;37380;45.186;9.792;2022-07-17T10:58:45;101495.16;;;33.94;42.08
51297;BME280;37380;45.186;9.792;2022-07-17T11:11:54;101501.19;;;34.18;45.89
51297;BME280;37380;45.186;9.792;2022-07-17T11:14:59;101507.28;;;33.87;45.68
51297;BME280;37380;45.186;9.792;2022-07-17T11:17:26;101492.53;;;33.92;44.78
51297;BME280;37380;45.186;9.792;2022-07-17T11:19:53;101508.47;;;33.81;45.61
51297;BME280;37380;45.186;9.792;2022-07-17T11:22:24;101488.00;;;34.96;43.07
51297;BME280;37380;45.186;9.792;2022-07-17T11:25:05;101419.06;;;35.46;42.27
51297;BME280;37380;45.186;9.792;2022-07-17T11:27:56;101503.88;;;35.84;42.05
51297;BME280;37380;45.186;9.792;2022-07-17T11:30:26;101512.47;;;35.45;43.32
51297;BME280;37380;45.186;9.792;2022-07-17T11:32:53;101497.47;;;34.88;44.57
51297;BME280;37380;45.186;9.792;2022-07-17T11:35:21;101504.84;;;34.69;47.10
51297;BME280;37380;45.186;9.792;2022-07-17T11:38:07;101490.56;;;33.77;49.57
51297;BME280;37380;45.186;9.792;2022-07-17T11:40:35;101434.69;;;33.57;47.34
51297;BME280;37380;45.186;9.792;2022-07-17T11:43:12;101477.34;;;33.88;48.87
51297;BME280;37380;45.186;9.792;2022-07-17T11:45:46;101476.72;;;34.00;49.49
51297;BME280;37380;45.186;9.792;2022-07-17T11:48:47;101475.69;;;33.11;48.67
51297;BME280;37380;45.186;9.792;2022-07-17T11:51:44;101483.41;;;33.76;47.67
51297;BME280;37380;45.186;9.792;2022-07-17T11:54:16;101456.22;;;33.03;50.20
51297;BME280;37380;45.186;9.792;2022-07-17T11:56:52;101425.59;;;32.82;48.94
51297;BME280;37380;45.186;9.792;2022-07-17T11:59:29;101442.97;;;33.71;46.33
51297;BME280;37380;45.186;9.792;2022-07-17T12:02:07;101476.22;;;34.29;46.94
51297;BME280;37380;45.186;9.792;2022-07-17T12:04:35;101461.22;;;33.68;47.32
51297;BME280;37380;45.186;9.792;2022-07-17T12:07:03;101486.16;;;33.38;48.33
51297;BME280;37380;45.186;9.792;2022-07-17T12:09:32;101404.56;;;33.08;47.76
51297;BME280;37380;45.186;9.792;2022-07-17T12:12:01;101469.97;;;33.55;48.02
51297;BME280;37380;45.186;9.792;2022-07-17T12:14:28;101421.50;;;32.74;46.96
51297;BME280;37380;45.186;9.792;2022-07-17T12:17:01;101463.06;;;32.52;48.67
51297;BME280;37380;45.186;9.792;2022-07-17T12:19:36;101457.31;;;33.18;47.77
51297;BME280;37380;45.186;9.792;2022-07-17T12:22:30;101435.28;;;33.26;47.98
51297;BME280;37380;45.186;9.792;2022-07-17T12:24:57;101448.88;;;33.43;50.04
51297;BME280;37380;45.186;9.792;2022-07-17T12:27:24;101397.69;;;33.01;46.85
51297;BME280;37380;45.186;9.792;2022-07-17T12:29:51;101416.63;;;33.75;43.39
51297;BME280;37380;45.186;9.792;2022-07-17T12:32:18;101423.28;;;33.12;45.94
51297;BME280;37380;45.186;9.792;2022-07-17T12:34:48;101440.50;;;33.11;47.61
51297;BME280;37380;45.186;9.792;2022-07-17T12:37:20;101428.00;;;33.81;48.32
51297;BME280;37380;45.186;9.792;2022-07-17T12:39:55;101372.28;;;33.22;46.94
51297;BME280;37380;45.186;9.792;2022-07-17T12:42:54;101427.75;;;33.51;46.57
51297;BME280;37380;45.186;9.792;2022-07-17T12:45:24;101400.19;;;33.05;48.04
51297;BME280;37380;45.186;9.792;2022-07-17T12:47:51;101434.06;;;33.50;46.31
51297;BME280;37380;45.186;9.792;2022-07-17T12:50:18;101448.75;;;33.08;48.82
51297;BME280;37380;45.186;9.792;2022-07-17T12:52:45;101436.75;;;33.52;49.22
51297;BME280;37380;45.186;9.792;2022-07-17T12:55:12;101404.53;;;33.27;48.55
51297;BME280;37380;45.186;9.792;2022-07-17T12:57:39;101434.38;;;32.87;48.65
51297;BME280;37380;45.186;9.792;2022-07-17T13:00:07;101400.00;;;32.71;48.12
51297;BME280;37380;45.186;9.792;2022-07-17T13:02:34;101437.81;;;33.67;47.94
51297;BME280;37380;45.186;9.792;2022-07-17T13:05:21;101439.75;;;34.34;45.64
51297;BME280;37380;45.186;9.792;2022-07-17T13:07:50;101406.84;;;34.40;45.17
51297;BME280;37380;45.186;9.792;2022-07-17T13:10:17;101382.47;;;34.74;43.28
51297;BME280;37380;45.186;9.792;2022-07-17T13:12:44;101414.38;;;35.33;40.50
51297;BME280;37380;45.186;9.792;2022-07-17T13:15:18;101413.88;;;34.93;39.81
51297;BME280;37380;45.186;9.792;2022-07-17T13:18:20;101421.00;;;34.80;40.33
51297;BME280;37380;45.186;9.792;2022-07-17T13:21:17;101410.63;;;34.20;43.56
51297;BME280;37380;45.186;9.792;2022-07-17T13:23:44;101429.69;;;34.36;42.37
51297;BME280;37380;45.186;9.792;2022-07-17T13:26:14;101415.69;;;34.44;42.38
51297;BME280;37380;45.186;9.792;2022-07-17T13:28:45;101376.66;;;34.64;39.95
51297;BME280;37380;45.186;9.792;2022-07-17T13:31:13;101341.75;;;35.05;37.83
51297;BME280;37380;45.186;9.792;2022-07-17T13:33:40;101415.19;;;34.20;42.53
51297;BME280;37380;45.186;9.792;2022-07-17T13:36:07;101412.31;;;34.89;39.89
51297;BME280;37380;45.186;9.792;2022-07-17T13:38:35;101396.91;;;34.90;39.89
51297;BME280;37380;45.186;9.792;2022-07-17T13:41:01;101395.00;;;34.25;41.72
51297;BME280;37380;45.186;9.792;2022-07-17T13:43:28;101380.41;;;33.76;42.62
51297;BME280;37380;45.186;9.792;2022-07-17T13:45:55;101397.81;;;33.72;44.63
51297;BME280;37380;45.186;9.792;2022-07-17T13:48:22;101404.72;;;34.12;42.17
51297;BME280;37380;45.186;9.792;2022-07-17T13:50:52;101398.66;;;34.75;40.16
51297;BME280;37380;45.186;9.792;2022-07-17T13:53:19;101395.81;;;34.10;41.94
51297;BME280;37380;45.186;9.792;2022-07-17T13:55:53;101363.44;;;33.90;42.24